Crown Princess — ZCDM6 — position and weather

sailwx.info

Track history (hours):
 
Tides and Currents Weather Stations Pressure Air Temp Water Temp Dewpoint Dewpoint Depression Visibility Wind Speed Wind Dir Waves Ship Positions

Crown Princess

Last reported at 2015-Mar-02 10:00 UTC. Time now 2015-Mar-06 11:13 UTC.
Position N 25°12' W 113°24'.

Type: Ship. MMSI: 310500000.

Wind from 150 at 12 knots

Barometer 1018.9 mb
Air temperature 21.0 ° C
Dewpoint 18.8 ° C

Date/timePositionNaut miles runAvg speedWind from/ knotsBaromVisibWave heightAir tempDewpointWater temp
2015-Mar-02 10:00N 25°12' W 113°24'47217.8 150 / 121018.9 21.018.8
2015-Mar-01 07:29N 32°10' W 117°36'1718.4
2015-Mar-01 06:34N 32°26' W 117°42'1818.3
2015-Mar-01 05:33N 32°43' W 117°49'1818.1
2015-Mar-01 04:34N 33°01' W 117°55'1818.1
2015-Mar-01 03:33N 33°16' W 118°05'3012.2
2015-Mar-01 01:06N 33°45' W 118°17'0 0.0
2015-Feb-28 21:29N 33°45' W 118°17'0 0.0
2015-Feb-28 18:31N 33°45' W 118°17'0 0.0
2015-Feb-28 17:12N 33°45' W 118°17'26 5.3
2015-Feb-28 12:22N 33°22' W 118°04'1315.7
2015-Feb-28 11:34N 33°10' W 117°57'1919.0
2015-Feb-28 10:33N 32°52' W 117°51'2020.4
2015-Feb-28 09:33N 32°32' W 117°44'2120.1
2015-Feb-28 08:32N 32°13' W 117°36'  
2015-Feb-25 01:34N 20°38' W 105°20'5 5.1
2015-Feb-25 00:33N 20°39' W 105°15'0 0.0
2015-Feb-24 23:33N 20°39' W 105°15'0 0.0
2015-Feb-24 22:29N 20°39' W 105°15'0 0.0
2015-Feb-24 21:32N 20°39' W 105°15'0 0.0
2015-Feb-24 20:31N 20°39' W 105°15'0 0.0
2015-Feb-24 19:31N 20°39' W 105°15'0 0.0
2015-Feb-24 18:33N 20°39' W 105°15'0 0.0
2015-Feb-24 17:33N 20°39' W 105°15'0 0.1
2015-Feb-24 16:34N 20°39' W 105°15'59916.9
2015-Feb-23 05:00N 26°12' W 114°18'39417.9 330 / 101019.810.8 0.518.114.920.0
2015-Feb-22 07:00N 32°06' W 117°36'816.6 210 / 61016.810.8 0.515.111.717.0
2015-Feb-22 06:32N 32°14' W 117°37'1817.9
2015-Feb-22 05:33N 32°30' W 117°44'1818.2
2015-Feb-22 04:33N 32°47' W 117°51'1818.0
2015-Feb-22 03:32N 33°05' W 117°55'1818.0
2015-Feb-22 02:33N 33°20' W 118°07'2611.6
2015-Feb-22 00:17N 33°45' W 118°17'23 2.0
2015-Feb-21 12:32N 33°24' W 118°05'1414.9
2015-Feb-21 11:34N 33°11' W 117°58'1717.1
2015-Feb-21 10:34N 32°55' W 117°52'1717.2
2015-Feb-21 09:34N 32°38' W 117°47'2020.3
2015-Feb-21 08:34N 32°19' W 117°39'  
Track history (hours):
 
Tides and Currents Weather Stations Pressure Air Temp Water Temp Dewpoint Dewpoint Depression Visibility Wind Speed Wind Dir Waves Ship Positions

Crown Princess

Last reported at 2015-Mar-02 10:00 UTC. Time now 2015-Mar-06 11:13 UTC.
Position N 25°12' W 113°24'.

Type: Ship. MMSI: 310500000.

Wind from 150 at 12 knots

Barometer 1018.9 mb
Air temperature 21.0 ° C
Dewpoint 18.8 ° C

Date/timePositionNaut miles runAvg speedWind from/ knotsBaromVisibWave heightAir tempDewpointWater temp
2015-Mar-02 10:00N 25°12' W 113°24'47217.8 150 / 121018.9 21.018.8
2015-Mar-01 07:29N 32°10' W 117°36'1718.4
2015-Mar-01 06:34N 32°26' W 117°42'1818.3
2015-Mar-01 05:33N 32°43' W 117°49'1818.1
2015-Mar-01 04:34N 33°01' W 117°55'1818.1
2015-Mar-01 03:33N 33°16' W 118°05'3012.2
2015-Mar-01 01:06N 33°45' W 118°17'0 0.0
2015-Feb-28 21:29N 33°45' W 118°17'0 0.0
2015-Feb-28 18:31N 33°45' W 118°17'0 0.0
2015-Feb-28 17:12N 33°45' W 118°17'26 5.3
2015-Feb-28 12:22N 33°22' W 118°04'1315.7
2015-Feb-28 11:34N 33°10' W 117°57'1919.0
2015-Feb-28 10:33N 32°52' W 117°51'2020.4
2015-Feb-28 09:33N 32°32' W 117°44'2120.1
2015-Feb-28 08:32N 32°13' W 117°36'  
2015-Feb-25 01:34N 20°38' W 105°20'5 5.1
2015-Feb-25 00:33N 20°39' W 105°15'0 0.0
2015-Feb-24 23:33N 20°39' W 105°15'0 0.0
2015-Feb-24 22:29N 20°39' W 105°15'0 0.0
2015-Feb-24 21:32N 20°39' W 105°15'0 0.0
2015-Feb-24 20:31N 20°39' W 105°15'0 0.0
2015-Feb-24 19:31N 20°39' W 105°15'0 0.0
2015-Feb-24 18:33N 20°39' W 105°15'0 0.0
2015-Feb-24 17:33N 20°39' W 105°15'0 0.1
2015-Feb-24 16:34N 20°39' W 105°15'59916.9
2015-Feb-23 05:00N 26°12' W 114°18'39417.9 330 / 101019.810.8 0.518.114.920.0
2015-Feb-22 07:00N 32°06' W 117°36'816.6 210 / 61016.810.8 0.515.111.717.0
2015-Feb-22 06:32N 32°14' W 117°37'1817.9
2015-Feb-22 05:33N 32°30' W 117°44'1818.2
2015-Feb-22 04:33N 32°47' W 117°51'1818.0
2015-Feb-22 03:32N 33°05' W 117°55'1818.0
2015-Feb-22 02:33N 33°20' W 118°07'2611.6
2015-Feb-22 00:17N 33°45' W 118°17'23 2.0
2015-Feb-21 12:32N 33°24' W 118°05'1414.9
2015-Feb-21 11:34N 33°11' W 117°58'1717.1
2015-Feb-21 10:34N 32°55' W 117°52'1717.2
2015-Feb-21 09:34N 32°38' W 117°47'2020.3
2015-Feb-21 08:34N 32°19' W 117°39'  

Dump ship's entire track history